createdAt,value
2023-03-26T00:01:54.491Z,4.67
2023-03-26T00:04:25.396Z,5.17
2023-03-26T00:06:55.841Z,5.13
2023-03-26T00:09:24.046Z,5.40
2023-03-26T00:11:52.634Z,4.80
2023-03-26T00:14:20.826Z,5.27
2023-03-26T00:16:49.340Z,6.33
2023-03-26T00:19:17.654Z,5.53
2023-03-26T00:21:48.246Z,5.30
2023-03-26T00:24:17.821Z,5.63
2023-03-26T00:26:53.003Z,5.53
2023-03-26T00:29:22.802Z,6.23
2023-03-26T00:31:51.047Z,5.97
2023-03-26T00:34:19.288Z,6.53
2023-03-26T00:36:54.262Z,6.53
2023-03-26T00:39:25.612Z,6.03
2023-03-26T00:41:54.568Z,5.50
2023-03-26T00:44:23.377Z,5.23
2023-03-26T00:46:51.764Z,5.43
2023-03-26T00:49:19.962Z,5.33
2023-03-26T00:51:48.184Z,6.07
2023-03-26T00:54:16.522Z,5.73
2023-03-26T00:56:46.675Z,5.30
2023-03-26T00:59:15.616Z,5.27
2023-03-26T01:01:44.845Z,5.27
2023-03-26T01:04:24.194Z,6.47
2023-03-26T01:06:52.610Z,5.60
2023-03-26T01:09:22.530Z,5.27
2023-03-26T01:11:54.643Z,5.30
2023-03-26T01:14:24.495Z,5.13
2023-03-26T01:16:54.795Z,5.80
2023-03-26T01:19:29.136Z,5.40
2023-03-26T01:21:57.622Z,5.33
2023-03-26T01:24:27.232Z,5.57
2023-03-26T01:27:10.617Z,5.30
2023-03-26T01:29:43.391Z,4.53
2023-03-26T01:32:16.297Z,5.37
2023-03-26T01:34:49.741Z,4.87
2023-03-26T01:37:21.896Z,4.80
2023-03-26T01:39:56.940Z,4.50
2023-03-26T01:42:29.682Z,5.57
2023-03-26T01:45:00.748Z,4.97
2023-03-26T01:47:29.578Z,4.43
2023-03-26T01:49:57.837Z,4.60
2023-03-26T01:52:26.124Z,4.20
2023-03-26T01:54:56.289Z,5.33
2023-03-26T01:57:28.660Z,4.17
2023-03-26T02:00:11.494Z,4.13
2023-03-26T02:02:43.981Z,4.83
2023-03-26T02:05:17.406Z,4.70
2023-03-26T02:07:47.940Z,4.37
2023-03-26T02:10:18.981Z,4.57
2023-03-26T02:12:47.464Z,5.07
2023-03-26T02:15:16.190Z,4.43
2023-03-26T02:17:44.444Z,4.30
2023-03-26T02:20:14.271Z,4.80
2023-03-26T02:22:45.750Z,4.87
2023-03-26T02:25:15.388Z,4.70
2023-03-26T02:27:45.107Z,5.80
2023-03-26T02:30:16.699Z,5.40
2023-03-26T02:32:45.074Z,5.17
2023-03-26T02:35:13.721Z,4.90
2023-03-26T02:37:46.815Z,5.67
2023-03-26T02:40:15.061Z,5.83
2023-03-26T02:42:44.634Z,5.80
2023-03-26T02:45:12.846Z,5.70
2023-03-26T02:47:41.224Z,5.53
2023-03-26T02:50:09.745Z,6.03
2023-03-26T02:52:37.933Z,4.93
2023-03-26T02:55:07.350Z,5.73
2023-03-26T02:57:35.621Z,6.20
2023-03-26T03:00:14.006Z,6.83
2023-03-26T03:02:44.297Z,5.97
2023-03-26T03:05:12.695Z,6.10
2023-03-26T03:07:40.888Z,6.97
2023-03-26T03:10:10.038Z,6.70
2023-03-26T03:12:38.257Z,6.10
2023-03-26T03:15:08.491Z,6.43
2023-03-26T03:17:36.738Z,6.13
2023-03-26T03:20:05.791Z,6.20
2023-03-26T03:22:33.993Z,6.63
2023-03-26T03:25:02.246Z,6.60
2023-03-26T03:27:31.426Z,6.57
2023-03-26T03:29:59.618Z,6.13
2023-03-26T03:32:29.287Z,6.07
2023-03-26T03:34:57.541Z,5.77
2023-03-26T03:37:27.038Z,6.27
2023-03-26T03:39:55.310Z,6.50
2023-03-26T03:42:23.650Z,5.90
2023-03-26T03:44:51.922Z,6.93
2023-03-26T03:47:20.360Z,6.80
2023-03-26T03:49:51.172Z,7.23
2023-03-26T03:52:19.399Z,7.20
2023-03-26T03:54:47.661Z,7.97
2023-03-26T03:57:18.761Z,8.43
2023-03-26T03:59:48.476Z,7.87
2023-03-26T04:02:26.232Z,8.30
2023-03-26T04:04:57.492Z,8.77
2023-03-26T04:07:26.144Z,8.93
2023-03-26T04:09:54.723Z,8.83
2023-03-26T04:12:22.992Z,8.60
2023-03-26T04:14:51.210Z,8.73
2023-03-26T04:17:21.850Z,9.50
2023-03-26T04:19:50.418Z,9.67
2023-03-26T04:22:20.016Z,9.50
2023-03-26T04:24:48.778Z,9.33
2023-03-26T04:27:19.153Z,9.60
2023-03-26T04:29:49.618Z,8.83
2023-03-26T04:32:20.452Z,9.63
2023-03-26T04:34:48.640Z,9.50
2023-03-26T04:37:19.765Z,8.87
2023-03-26T04:39:50.104Z,9.23
2023-03-26T04:42:19.930Z,8.20
2023-03-26T04:44:50.734Z,8.47
2023-03-26T04:47:19.533Z,9.37
2023-03-26T04:49:49.045Z,9.37
2023-03-26T04:52:17.311Z,9.07
2023-03-26T04:54:46.580Z,8.90
2023-03-26T04:57:19.544Z,8.67
2023-03-26T04:59:47.770Z,8.13
2023-03-26T05:02:18.009Z,8.13
2023-03-26T05:04:46.326Z,8.90
2023-03-26T05:07:18.353Z,9.57
2023-03-26T05:09:46.665Z,9.03
2023-03-26T05:12:14.870Z,9.20
2023-03-26T05:14:44.483Z,8.57
2023-03-26T05:17:18.783Z,9.70
2023-03-26T05:19:47.609Z,9.60
2023-03-26T05:22:16.059Z,9.00
2023-03-26T05:24:45.111Z,9.73
2023-03-26T05:27:16.821Z,9.00
2023-03-26T05:29:46.388Z,9.57
2023-03-26T05:32:14.800Z,10.57
2023-03-26T05:34:43.211Z,8.97
2023-03-26T05:37:11.421Z,9.60
2023-03-26T05:39:41.235Z,9.10
2023-03-26T05:42:09.494Z,9.03
2023-03-26T05:44:37.713Z,9.13
2023-03-26T05:47:07.377Z,8.60
2023-03-26T05:49:35.551Z,8.47
2023-03-26T05:52:03.859Z,8.90
2023-03-26T05:54:32.084Z,8.90
2023-03-26T05:57:00.712Z,8.43
2023-03-26T05:59:29.023Z,10.43
2023-03-26T06:01:57.373Z,9.03
2023-03-26T06:04:28.499Z,9.43
2023-03-26T06:06:57.007Z,9.30
2023-03-26T06:09:25.296Z,8.57
2023-03-26T06:11:53.534Z,8.63
2023-03-26T06:14:21.864Z,9.80
2023-03-26T06:16:50.108Z,9.70
2023-03-26T06:19:21.344Z,10.63
2023-03-26T06:21:51.010Z,9.53
2023-03-26T06:24:19.820Z,9.93
2023-03-26T06:26:48.208Z,10.00
2023-03-26T06:29:16.473Z,8.87
2023-03-26T06:31:44.800Z,8.57
2023-03-26T06:34:13.048Z,8.93
2023-03-26T06:36:41.354Z,9.57
2023-03-26T06:39:11.004Z,9.77
2023-03-26T06:41:39.266Z,9.17
2023-03-26T06:44:09.430Z,8.90
2023-03-26T06:46:37.696Z,9.30
2023-03-26T06:49:06.196Z,8.63
2023-03-26T06:51:34.806Z,8.97
2023-03-26T06:54:03.379Z,10.20
2023-03-26T06:56:33.471Z,9.60
2023-03-26T06:59:01.839Z,9.50
2023-03-26T07:01:30.440Z,9.60
2023-03-26T07:03:59.861Z,8.50
2023-03-26T07:06:28.838Z,9.17
2023-03-26T07:08:57.432Z,9.57
2023-03-26T07:11:31.250Z,9.57
2023-03-26T07:14:01.147Z,9.17
2023-03-26T07:16:29.432Z,10.10
2023-03-26T07:19:01.894Z,8.97
2023-03-26T07:21:32.905Z,8.63
2023-03-26T07:24:02.902Z,8.30
2023-03-26T07:26:36.321Z,8.30
2023-03-26T07:29:10.479Z,8.10
2023-03-26T07:31:42.778Z,8.83
2023-03-26T07:34:16.072Z,8.13
2023-03-26T07:36:48.729Z,9.97
2023-03-26T07:39:22.370Z,8.30
2023-03-26T07:41:52.225Z,8.30
2023-03-26T07:44:44.733Z,8.70
2023-03-26T07:47:26.211Z,8.30
2023-03-26T07:49:57.925Z,8.07
2023-03-26T07:52:26.709Z,7.50
2023-03-26T07:54:56.025Z,8.73
2023-03-26T07:57:32.680Z,7.30
2023-03-26T08:00:05.134Z,9.60
2023-03-26T08:02:44.513Z,9.80
2023-03-26T08:05:19.817Z,7.90
2023-03-26T08:07:58.161Z,8.27
2023-03-26T08:10:29.150Z,8.23
2023-03-26T08:13:02.396Z,8.43
2023-03-26T08:15:34.117Z,8.83
2023-03-26T08:18:07.871Z,8.40
2023-03-26T08:20:45.211Z,7.80
2023-03-26T08:23:18.831Z,8.30
2023-03-26T08:25:54.975Z,7.23
2023-03-26T08:28:34.506Z,7.33
2023-03-26T08:31:04.377Z,8.23
2023-03-26T08:33:36.483Z,7.23
2023-03-26T08:36:07.053Z,8.30
2023-03-26T08:38:38.436Z,7.17
2023-03-26T08:41:28.825Z,7.50
2023-03-26T08:44:06.270Z,8.00
2023-03-26T08:46:48.970Z,7.57
2023-03-26T08:49:30.469Z,8.33
2023-03-26T08:52:13.746Z,8.70
2023-03-26T08:55:12.625Z,7.87
2023-03-26T08:57:59.830Z,8.50
2023-03-26T09:00:44.792Z,7.90
2023-03-26T09:03:21.504Z,8.60
2023-03-26T09:06:01.301Z,9.37
2023-03-26T09:08:54.229Z,8.27
2023-03-26T09:11:38.946Z,9.70
2023-03-26T09:14:22.326Z,9.67
2023-03-26T09:17:15.123Z,8.30
2023-03-26T09:20:11.101Z,8.60
2023-03-26T09:22:49.903Z,8.93
2023-03-26T09:25:57.460Z,9.13
2023-03-26T09:28:43.562Z,8.47
2023-03-26T09:31:23.184Z,9.43
2023-03-26T09:34:00.416Z,8.87
2023-03-26T09:36:43.767Z,8.60
2023-03-26T09:39:16.913Z,9.50
2023-03-26T09:41:49.942Z,9.33
2023-03-26T09:44:35.990Z,9.70
2023-03-26T09:47:22.471Z,9.03
2023-03-26T09:49:53.767Z,9.23
2023-03-26T09:52:50.936Z,9.70
2023-03-26T09:55:37.197Z,8.80
2023-03-26T09:58:23.375Z,9.40
2023-03-26T10:00:55.764Z,9.37
2023-03-26T10:03:36.140Z,10.07
2023-03-26T10:06:19.263Z,8.93
2023-03-26T10:09:00.720Z,10.90
2023-03-26T10:11:34.725Z,11.37
2023-03-26T10:14:08.805Z,11.90
2023-03-26T10:16:44.132Z,12.47
2023-03-26T10:19:23.494Z,12.90
2023-03-26T10:21:59.626Z,13.30
2023-03-26T10:24:38.183Z,12.87
2023-03-26T10:27:15.907Z,12.80
2023-03-26T10:30:03.981Z,13.00
2023-03-26T10:32:35.732Z,12.17
2023-03-26T10:35:10.216Z,12.10
2023-03-26T10:37:46.823Z,11.63
2023-03-26T10:40:22.433Z,12.30
2023-03-26T10:43:13.157Z,12.37
2023-03-26T10:45:56.714Z,11.30
2023-03-26T10:48:43.666Z,11.83
2023-03-26T10:51:19.004Z,8.40
2023-03-26T10:53:50.775Z,7.37
2023-03-26T10:56:25.363Z,8.13
2023-03-26T10:58:56.832Z,7.80
2023-03-26T11:01:37.856Z,5.73
2023-03-26T11:04:11.432Z,4.23
2023-03-26T11:06:42.784Z,4.53
2023-03-26T11:09:17.484Z,4.53
2023-03-26T11:11:48.686Z,4.40
2023-03-26T11:14:33.807Z,3.73
2023-03-26T11:17:06.397Z,3.73
2023-03-26T11:19:39.112Z,4.90
2023-03-26T11:22:12.723Z,4.20
2023-03-26T11:24:48.338Z,4.50
2023-03-26T11:27:23.744Z,4.53
2023-03-26T11:29:58.479Z,4.80
2023-03-26T11:32:28.502Z,4.40
2023-03-26T11:35:03.986Z,4.50
2023-03-26T11:37:35.227Z,5.00
2023-03-26T11:40:06.422Z,5.47
2023-03-26T11:42:34.948Z,5.77
2023-03-26T11:45:08.071Z,6.47
2023-03-26T11:47:40.406Z,5.70
2023-03-26T11:50:10.483Z,10.00
2023-03-26T11:52:38.848Z,6.40
2023-03-26T11:55:07.675Z,3.80
2023-03-26T11:57:37.236Z,4.70
2023-03-26T12:00:16.748Z,5.10
2023-03-26T12:02:46.217Z,5.20
2023-03-26T12:05:16.346Z,6.00
2023-03-26T12:07:48.093Z,8.20
2023-03-26T12:10:24.248Z,7.20
2023-03-26T12:12:53.869Z,11.00
2023-03-26T12:15:23.627Z,8.53
2023-03-26T12:17:53.569Z,7.80
2023-03-26T12:20:33.161Z,6.33
2023-03-26T12:23:02.277Z,6.30
2023-03-26T12:25:31.657Z,6.70
2023-03-26T12:28:03.016Z,6.13
2023-03-26T12:30:34.640Z,7.03
2023-03-26T12:33:04.401Z,5.37
2023-03-26T12:35:36.638Z,5.97
2023-03-26T12:38:24.865Z,6.50
2023-03-26T12:41:06.882Z,5.80
2023-03-26T12:44:50.757Z,5.57
2023-03-26T12:47:57.291Z,5.73
2023-03-26T12:49:22.727Z,4.93
2023-03-26T12:51:53.333Z,3.40
2023-03-26T12:54:29.006Z,3.43
2023-03-26T12:57:12.264Z,3.60
2023-03-26T12:59:45.705Z,3.40
2023-03-26T13:02:29.592Z,3.50
2023-03-26T13:05:06.786Z,4.13
2023-03-26T13:07:44.812Z,4.60
2023-03-26T13:10:37.151Z,4.70
2023-03-26T13:13:13.477Z,4.97
2023-03-26T13:15:46.357Z,4.53
2023-03-26T13:18:24.270Z,4.70
2023-03-26T13:20:56.056Z,5.10
2023-03-26T13:23:31.655Z,5.93
2023-03-26T13:26:04.306Z,5.53
2023-03-26T13:28:37.586Z,5.83
2023-03-26T13:31:07.849Z,6.27
2023-03-26T13:33:48.538Z,5.30
2023-03-26T13:36:24.506Z,5.20
2023-03-26T13:39:03.491Z,5.73
2023-03-26T13:41:35.964Z,5.37
2023-03-26T13:44:09.580Z,6.07
2023-03-26T13:46:40.474Z,5.50
2023-03-26T13:49:17.492Z,5.50
2023-03-26T13:51:47.979Z,5.80
2023-03-26T13:54:19.821Z,4.37
2023-03-26T13:56:50.066Z,4.60
2023-03-26T13:59:21.000Z,4.60
2023-03-26T14:01:51.392Z,5.60
2023-03-26T14:04:23.663Z,5.40
2023-03-26T14:06:57.271Z,5.13
2023-03-26T14:09:31.597Z,5.23
2023-03-26T14:12:04.378Z,4.73
2023-03-26T14:14:36.418Z,4.57
2023-03-26T14:17:08.609Z,5.50
2023-03-26T14:19:51.745Z,5.10
2023-03-26T14:22:26.866Z,4.67
2023-03-26T14:25:18.660Z,4.20
2023-03-26T14:27:55.982Z,4.70
2023-03-26T14:30:44.596Z,4.10
2023-03-26T14:33:27.278Z,4.50
2023-03-26T14:36:00.875Z,4.13
2023-03-26T14:38:47.395Z,4.20
2023-03-26T14:41:21.750Z,4.13
2023-03-26T14:44:07.711Z,3.60
2023-03-26T14:46:42.348Z,4.97
2023-03-26T14:49:21.788Z,4.87
2023-03-26T14:51:56.793Z,4.20
2023-03-26T14:54:28.105Z,4.00
2023-03-26T14:57:07.259Z,4.77
2023-03-26T14:59:51.009Z,5.27
2023-03-26T15:02:40.324Z,4.20
2023-03-26T15:05:23.390Z,3.47
2023-03-26T15:08:06.451Z,3.50
2023-03-26T15:11:09.903Z,3.40
2023-03-26T15:13:55.213Z,3.20
2023-03-26T15:16:33.917Z,3.30
2023-03-26T15:19:09.924Z,3.17
2023-03-26T15:21:51.072Z,3.03
2023-03-26T15:24:34.145Z,3.23
2023-03-26T15:27:29.314Z,3.23
2023-03-26T15:30:07.432Z,3.57
2023-03-26T15:32:52.682Z,3.00
2023-03-26T15:35:36.356Z,2.97
2023-03-26T15:38:14.433Z,2.67
2023-03-26T15:40:47.156Z,3.33
2023-03-26T15:43:16.215Z,3.00
2023-03-26T15:45:47.496Z,3.50
2023-03-26T15:48:40.102Z,3.30
2023-03-26T15:51:15.368Z,3.33
2023-03-26T15:53:48.904Z,4.03
2023-03-26T15:56:26.549Z,4.27
2023-03-26T15:58:58.108Z,4.23
2023-03-26T16:01:38.753Z,4.10
2023-03-26T16:04:14.368Z,3.53
2023-03-26T16:06:50.041Z,3.13
2023-03-26T16:09:32.435Z,3.00
2023-03-26T16:12:01.511Z,3.63
2023-03-26T16:14:43.181Z,3.20
2023-03-26T16:17:15.617Z,3.30
2023-03-26T16:19:51.858Z,3.10
2023-03-26T16:22:43.014Z,3.10
2023-03-26T16:25:27.898Z,2.47
2023-03-26T16:28:16.923Z,2.90
2023-03-26T16:30:46.087Z,3.53
2023-03-26T16:33:17.625Z,3.00
2023-03-26T16:36:04.457Z,3.03
2023-03-26T16:38:50.184Z,3.23
2023-03-26T16:41:19.342Z,2.73
2023-03-26T16:43:57.333Z,2.90
2023-03-26T16:46:30.545Z,3.00
2023-03-26T16:49:03.250Z,3.40
2023-03-26T16:51:37.644Z,3.40
2023-03-26T16:54:10.532Z,2.77
2023-03-26T16:56:47.517Z,2.73
2023-03-26T16:59:27.949Z,2.87
2023-03-26T17:02:01.790Z,3.40
2023-03-26T17:04:32.404Z,2.77
2023-03-26T17:07:14.002Z,3.03
2023-03-26T17:09:51.778Z,3.23
2023-03-26T17:12:23.762Z,3.43
2023-03-26T17:15:00.255Z,3.20
2023-03-26T17:17:42.731Z,2.70
2023-03-26T17:20:19.434Z,2.77
2023-03-26T17:22:49.323Z,3.57
2023-03-26T17:25:23.359Z,3.37
2023-03-26T17:27:58.128Z,3.60
2023-03-26T17:30:34.618Z,2.70
2023-03-26T17:33:08.576Z,3.40
2023-03-26T17:35:42.764Z,2.97
2023-03-26T17:38:31.961Z,3.43
2023-03-26T17:41:00.466Z,3.40
2023-03-26T17:43:50.154Z,3.40
2023-03-26T17:46:29.831Z,3.50
2023-03-26T17:49:03.065Z,3.47
2023-03-26T17:51:41.842Z,4.10
2023-03-26T17:54:15.644Z,3.10
2023-03-26T17:56:44.084Z,3.27
2023-03-26T17:59:17.705Z,3.27
2023-03-26T18:01:48.535Z,3.30
2023-03-26T18:04:20.198Z,3.03
2023-03-26T18:07:03.992Z,3.90
2023-03-26T18:09:39.409Z,2.97
2023-03-26T18:12:25.512Z,2.93
2023-03-26T18:15:05.937Z,2.80
2023-03-26T18:17:40.585Z,3.17
2023-03-26T18:20:09.886Z,3.80
2023-03-26T18:22:40.090Z,3.63
2023-03-26T18:25:12.403Z,2.80
2023-03-26T18:27:42.021Z,2.80
2023-03-26T18:30:16.719Z,3.13
2023-03-26T18:32:50.715Z,2.70
2023-03-26T18:35:20.350Z,2.90
2023-03-26T18:37:51.778Z,3.40
2023-03-26T18:40:21.350Z,2.50
2023-03-26T18:42:51.496Z,2.67
2023-03-26T18:45:25.352Z,3.03
2023-03-26T18:47:54.392Z,2.93
2023-03-26T18:50:25.223Z,2.87
2023-03-26T18:52:55.193Z,2.93
2023-03-26T18:55:23.575Z,3.17
2023-03-26T18:57:52.490Z,2.97
2023-03-26T19:00:23.254Z,2.93
2023-03-26T19:02:53.175Z,2.87
2023-03-26T19:05:21.871Z,2.40
2023-03-26T19:07:52.273Z,2.93
2023-03-26T19:10:22.337Z,2.53
2023-03-26T19:12:57.134Z,2.60
2023-03-26T19:15:26.548Z,2.57
2023-03-26T19:17:56.772Z,2.93
2023-03-26T19:20:26.193Z,2.80
2023-03-26T19:22:55.276Z,2.60
2023-03-26T19:25:26.975Z,3.10
2023-03-26T19:27:55.454Z,2.90
2023-03-26T19:30:29.070Z,3.00
2023-03-26T19:33:13.182Z,2.90
2023-03-26T19:35:42.983Z,2.70
2023-03-26T19:38:14.986Z,3.37
2023-03-26T19:40:44.767Z,3.57
2023-03-26T19:43:13.748Z,2.70
2023-03-26T19:45:59.847Z,3.20
2023-03-26T19:48:46.046Z,3.33
2023-03-26T19:51:20.414Z,2.90
2023-03-26T19:53:49.587Z,2.77
2023-03-26T19:56:21.782Z,3.00
2023-03-26T19:58:50.388Z,2.97
2023-03-26T20:01:19.728Z,3.07
2023-03-26T20:03:49.565Z,2.80
2023-03-26T20:06:18.893Z,2.60
2023-03-26T20:08:50.442Z,3.10
2023-03-26T20:11:21.506Z,2.70
2023-03-26T20:13:50.225Z,3.10
2023-03-26T20:16:22.899Z,2.83
2023-03-26T20:18:51.739Z,2.80
2023-03-26T20:21:20.109Z,2.40
2023-03-26T20:23:53.516Z,2.53
2023-03-26T20:26:24.036Z,2.80
2023-03-26T20:28:53.448Z,2.33
2023-03-26T20:31:23.027Z,2.83
2023-03-26T20:33:51.858Z,2.40
2023-03-26T20:36:33.438Z,3.67
2023-03-26T20:39:05.835Z,2.97
2023-03-26T20:41:38.051Z,2.80
2023-03-26T20:44:13.494Z,2.63
2023-03-26T20:46:42.392Z,2.90
2023-03-26T20:49:11.236Z,2.40
2023-03-26T20:51:41.749Z,2.70
2023-03-26T20:54:14.850Z,2.60
2023-03-26T20:56:45.584Z,2.80
2023-03-26T20:59:17.687Z,2.27
2023-03-26T21:01:46.984Z,2.80
2023-03-26T21:04:16.068Z,2.30
2023-03-26T21:06:44.368Z,2.87
2023-03-26T21:09:17.510Z,2.37
2023-03-26T21:11:54.727Z,2.70
2023-03-26T21:14:24.604Z,2.47
2023-03-26T21:16:53.242Z,2.70
2023-03-26T21:19:21.729Z,2.63
2023-03-26T21:22:01.318Z,2.67
2023-03-26T21:24:35.019Z,2.73
2023-03-26T21:27:08.432Z,2.30
2023-03-26T21:29:37.547Z,2.53
2023-03-26T21:32:06.389Z,2.93
2023-03-26T21:34:35.068Z,2.50
2023-03-26T21:37:04.136Z,2.93
2023-03-26T21:39:32.661Z,3.03
2023-03-26T21:42:05.232Z,2.70
2023-03-26T21:44:36.063Z,2.70
2023-03-26T21:47:04.564Z,2.90
2023-03-26T21:49:33.106Z,2.97
2023-03-26T21:52:01.666Z,2.90
2023-03-26T21:54:30.794Z,2.57
2023-03-26T21:57:06.149Z,3.50
2023-03-26T21:59:38.723Z,2.67
2023-03-26T22:02:08.955Z,2.53
2023-03-26T22:04:41.077Z,2.73
2023-03-26T22:07:13.145Z,2.80
2023-03-26T22:09:41.546Z,2.73
2023-03-26T22:12:10.450Z,2.73
2023-03-26T22:14:40.620Z,2.73
2023-03-26T22:17:08.896Z,2.30
2023-03-26T22:19:37.161Z,2.63
2023-03-26T22:22:05.501Z,2.30
2023-03-26T22:24:34.377Z,2.53
2023-03-26T22:27:02.672Z,2.93
2023-03-26T22:29:30.973Z,2.60
2023-03-26T22:32:00.591Z,2.47
2023-03-26T22:34:29.265Z,2.83
2023-03-26T22:36:57.502Z,2.63
2023-03-26T22:39:25.878Z,2.87
2023-03-26T22:41:54.416Z,2.70
2023-03-26T22:44:22.607Z,2.17
2023-03-26T22:46:52.368Z,2.60
2023-03-26T22:49:22.126Z,2.80
2023-03-26T22:51:51.460Z,2.90
2023-03-26T22:54:19.913Z,2.53
2023-03-26T22:56:48.189Z,2.60
2023-03-26T22:59:16.397Z,1.90
2023-03-26T23:01:45.465Z,2.53
2023-03-26T23:04:31.254Z,2.60
2023-03-26T23:07:01.844Z,2.27
2023-03-26T23:09:30.440Z,2.00
2023-03-26T23:11:58.834Z,2.83
2023-03-26T23:14:28.571Z,2.63
2023-03-26T23:16:57.223Z,3.23
2023-03-26T23:19:25.789Z,3.00
2023-03-26T23:21:54.082Z,2.87
2023-03-26T23:24:26.183Z,2.23
2023-03-26T23:26:54.489Z,2.63
2023-03-26T23:29:22.822Z,2.30
2023-03-26T23:31:52.793Z,2.43
2023-03-26T23:34:21.502Z,2.50
2023-03-26T23:36:49.914Z,3.00
2023-03-26T23:39:18.803Z,2.30
2023-03-26T23:41:48.484Z,2.53
2023-03-26T23:44:17.024Z,2.30
2023-03-26T23:46:45.230Z,2.47
2023-03-26T23:49:13.659Z,2.93
2023-03-26T23:51:42.419Z,2.23
2023-03-26T23:54:11.607Z,2.70
2023-03-26T23:56:40.032Z,2.33
2023-03-26T23:59:09.665Z,2.77
